Niagara Falls, Canada
Current Conditions -  °F | °C
As of 8:02 AM on Saturday 20 Dec 2014 (Local Time) from KIAG Reporting Station
Broken Clouds Broken Clouds  
Wind Chill: 25°   Ceiling: 2100
Heat Index: 25°   Visibility: 8mi
Dew Point: 22°   Wind: 3mph
Humidity: 88%   Direction: 210°SSW
Pressure: 30.28"   Gusts: NA
Location:  43.08°N, 79.08°W
Report Text: KIAG 201102Z AUTO 21003KT 8SM BKN021 M04/M06 A3028 RMK AO2 T10391056
Loading
Personal Weather Stations






























Interactive Weather Map New forecast layout! Learn more

10-Day Weather Forecast

Advertisements
Track Severe Weather on mobile